createdAt,value
2022-08-02T00:00:59.214Z,78.77
2022-08-02T00:03:26.845Z,78.97
2022-08-02T00:05:55.992Z,79.43
2022-08-02T00:08:23.853Z,79.22
2022-08-02T00:10:51.697Z,79.26
2022-08-02T00:13:19.481Z,79.21
2022-08-02T00:15:47.166Z,79.10
2022-08-02T00:18:14.916Z,79.19
2022-08-02T00:20:42.646Z,79.24
2022-08-02T00:23:11.656Z,78.74
2022-08-02T00:25:55.514Z,78.55
2022-08-02T00:28:27.856Z,78.93
2022-08-02T00:30:56.313Z,78.80
2022-08-02T00:34:26.685Z,78.69
2022-08-02T00:36:11.682Z,79.13
2022-08-02T00:38:40.801Z,79.46
2022-08-02T00:41:13.922Z,79.45
2022-08-02T00:43:41.706Z,80.28
2022-08-02T00:46:09.380Z,79.98
2022-08-02T00:48:37.283Z,80.23
2022-08-02T00:51:10.674Z,80.82
2022-08-02T00:53:39.849Z,81.32
2022-08-02T00:56:07.781Z,80.91
2022-08-02T00:58:35.820Z,81.24
2022-08-02T01:01:03.557Z,81.44
2022-08-02T01:03:31.243Z,81.42
2022-08-02T01:06:10.856Z,81.52
2022-08-02T01:08:40.836Z,81.38
2022-08-02T01:11:08.574Z,81.20
2022-08-02T01:13:36.219Z,81.28
2022-08-02T01:16:09.696Z,81.51
2022-08-02T01:18:41.745Z,81.72
2022-08-02T01:21:28.280Z,81.95
2022-08-02T01:24:09.439Z,82.04
2022-08-02T01:26:42.957Z,82.66
2022-08-02T01:29:15.398Z,82.79
2022-08-02T01:31:47.688Z,83.05
2022-08-02T01:34:20.362Z,83.29
2022-08-02T01:36:54.553Z,84.19
2022-08-02T01:39:26.346Z,83.94
2022-08-02T01:41:58.059Z,84.26
2022-08-02T01:44:29.596Z,83.79
2022-08-02T01:46:58.943Z,83.77
2022-08-02T01:49:30.254Z,84.06
2022-08-02T01:52:17.509Z,84.15
2022-08-02T01:54:46.568Z,84.19
2022-08-02T01:57:14.977Z,84.56
2022-08-02T01:59:45.317Z,84.90
2022-08-02T02:02:13.955Z,85.20
2022-08-02T02:04:41.983Z,85.49
2022-08-02T02:07:10.037Z,85.28
2022-08-02T02:09:47.678Z,85.68
2022-08-02T02:12:19.967Z,85.28
2022-08-02T02:14:52.237Z,85.50
2022-08-02T02:17:52.725Z,85.61
2022-08-02T02:20:12.131Z,86.38
2022-08-02T02:22:39.798Z,85.88
2022-08-02T02:25:11.304Z,86.70
2022-08-02T02:27:40.847Z,87.33
2022-08-02T02:30:14.405Z,87.20
2022-08-02T02:32:42.732Z,87.06
2022-08-02T02:35:11.989Z,88.11
2022-08-02T02:37:40.291Z,88.00
2022-08-02T02:40:09.874Z,88.30
2022-08-02T02:42:37.985Z,88.97
2022-08-02T02:45:11.108Z,89.54
2022-08-02T02:47:41.859Z,89.74
2022-08-02T02:50:10.538Z,90.33
2022-08-02T02:52:38.818Z,90.34
2022-08-02T02:55:07.634Z,90.44
2022-08-02T02:57:35.399Z,89.86
2022-08-02T03:00:03.234Z,89.66
2022-08-02T03:02:31.711Z,90.26
2022-08-02T03:05:02.837Z,90.27
2022-08-02T03:07:37.483Z,89.96
2022-08-02T03:10:07.752Z,89.40
2022-08-02T03:12:35.809Z,89.82
2022-08-02T03:15:06.512Z,90.00
2022-08-02T03:17:42.143Z,90.24
2022-08-02T03:20:16.054Z,89.66
2022-08-02T03:22:44.839Z,90.31
2022-08-02T03:25:13.337Z,90.70
2022-08-02T03:27:41.412Z,90.59
2022-08-02T03:30:11.519Z,91.10
2022-08-02T03:32:40.589Z,91.55
2022-08-02T03:35:11.699Z,91.11
2022-08-02T03:37:41.904Z,91.33
2022-08-02T03:40:11.394Z,91.75
2022-08-02T03:42:40.147Z,91.47
2022-08-02T03:45:10.859Z,91.55
2022-08-02T03:47:39.883Z,91.66
2022-08-02T03:50:09.732Z,91.81
2022-08-02T03:52:37.810Z,91.75
2022-08-02T03:55:07.563Z,91.54
2022-08-02T03:57:38.250Z,91.70
2022-08-02T04:00:07.322Z,91.35
2022-08-02T04:02:34.936Z,91.68
2022-08-02T04:05:02.693Z,92.21
2022-08-02T04:08:36.353Z,92.63
2022-08-02T04:10:19.682Z,92.53
2022-08-02T04:12:46.571Z,92.58
2022-08-02T04:15:15.239Z,92.25
2022-08-02T04:17:47.082Z,91.96
2022-08-02T04:20:20.080Z,92.18
2022-08-02T04:22:51.214Z,92.32
2022-08-02T04:25:34.482Z,92.70
2022-08-02T04:28:16.566Z,92.85
2022-08-02T04:30:46.340Z,92.90
2022-08-02T04:33:14.714Z,92.82
2022-08-02T04:35:42.971Z,92.31
2022-08-02T04:38:11.091Z,92.07
2022-08-02T04:40:40.419Z,92.22
2022-08-02T04:43:08.817Z,91.97
2022-08-02T04:45:37.405Z,91.49
2022-08-02T04:48:06.367Z,91.57
2022-08-02T04:50:34.452Z,91.04
2022-08-02T04:53:02.522Z,91.78
2022-08-02T04:55:30.604Z,91.84
2022-08-02T04:58:03.695Z,91.47
2022-08-02T05:00:32.804Z,91.24
2022-08-02T05:03:01.305Z,91.10
2022-08-02T05:05:29.612Z,91.17
2022-08-02T05:07:57.547Z,91.74
2022-08-02T05:10:26.039Z,91.45
2022-08-02T05:12:54.089Z,91.55
2022-08-02T05:15:29.238Z,91.20
2022-08-02T05:18:00.105Z,91.00
2022-08-02T05:20:28.182Z,91.12
2022-08-02T05:22:56.147Z,90.44
2022-08-02T05:25:24.031Z,89.93
2022-08-02T05:27:51.772Z,89.85
2022-08-02T05:30:19.415Z,89.91
2022-08-02T05:32:50.444Z,89.97
2022-08-02T05:35:19.179Z,89.91
2022-08-02T05:37:48.132Z,89.48
2022-08-02T05:40:16.267Z,89.54
2022-08-02T05:42:45.029Z,89.87
2022-08-02T05:45:12.869Z,89.89
2022-08-02T05:47:40.906Z,89.68
2022-08-02T05:50:11.352Z,89.37
2022-08-02T05:52:46.747Z,89.35
2022-08-02T05:55:19.053Z,88.68
2022-08-02T05:57:52.692Z,88.98
2022-08-02T06:00:21.441Z,89.32
2022-08-02T06:03:16.806Z,88.82
2022-08-02T06:05:52.254Z,88.81
2022-08-02T06:08:21.953Z,88.03
2022-08-02T06:10:50.861Z,87.75
2022-08-02T06:13:19.341Z,87.49
2022-08-02T06:15:53.480Z,87.61
2022-08-02T06:18:27.853Z,87.56
2022-08-02T06:22:32.139Z,87.54
2022-08-02T06:23:57.723Z,87.04
2022-08-02T06:26:26.891Z,86.81
2022-08-02T06:28:55.671Z,86.82
2022-08-02T06:31:23.987Z,85.78
2022-08-02T06:33:52.172Z,86.24
2022-08-02T06:36:28.389Z,85.95
2022-08-02T06:39:04.079Z,85.11
2022-08-02T06:41:33.343Z,83.99
2022-08-02T06:44:19.465Z,83.29
2022-08-02T06:47:11.701Z,82.81
2022-08-02T06:49:51.803Z,81.17
2022-08-02T06:52:27.772Z,81.18
2022-08-02T06:54:57.248Z,81.36
2022-08-02T06:57:24.982Z,80.16
2022-08-02T06:59:52.839Z,80.58
2022-08-02T07:02:20.750Z,80.24
2022-08-02T07:04:48.557Z,80.51
2022-08-02T07:07:16.265Z,79.68
2022-08-02T07:09:56.815Z,79.65
2022-08-02T07:12:29.694Z,78.61
2022-08-02T07:14:57.979Z,78.81
2022-08-02T07:17:25.940Z,76.21
2022-08-02T07:19:53.646Z,75.12
2022-08-02T07:22:23.412Z,73.37
2022-08-02T07:24:52.714Z,73.73
2022-08-02T07:27:21.024Z,71.66
2022-08-02T07:29:48.913Z,71.17
2022-08-02T07:32:17.285Z,71.20
2022-08-02T07:34:51.110Z,70.05
2022-08-02T07:37:33.924Z,69.79
2022-08-02T07:40:11.894Z,66.88
2022-08-02T07:42:41.644Z,66.32
2022-08-02T07:45:09.987Z,65.59
2022-08-02T07:47:37.787Z,65.08
2022-08-02T07:50:06.339Z,64.42
2022-08-02T07:52:34.087Z,64.12
2022-08-02T07:55:01.721Z,62.60
2022-08-02T07:57:30.958Z,62.88
2022-08-02T07:59:58.638Z,60.46
2022-08-02T08:02:26.474Z,59.25
2022-08-02T08:04:54.518Z,59.14
2022-08-02T08:07:22.247Z,58.43
2022-08-02T08:09:50.915Z,57.35
2022-08-02T08:12:24.584Z,57.34
2022-08-02T08:14:53.734Z,57.62
2022-08-02T08:17:21.574Z,56.02
2022-08-02T08:19:50.886Z,55.44
2022-08-02T08:22:20.030Z,56.89
2022-08-02T08:24:48.820Z,56.35
2022-08-02T08:27:16.783Z,55.29
2022-08-02T08:29:45.042Z,55.62
2022-08-02T08:32:18.139Z,56.28
2022-08-02T08:34:46.596Z,56.03
2022-08-02T08:37:17.843Z,56.45
2022-08-02T08:39:56.530Z,56.16
2022-08-02T08:42:26.667Z,56.48
2022-08-02T08:44:56.084Z,56.42
2022-08-02T08:47:25.913Z,56.92
2022-08-02T08:49:56.902Z,56.53
2022-08-02T08:52:25.170Z,57.28
2022-08-02T08:54:53.548Z,56.43
2022-08-02T08:57:22.106Z,55.90
2022-08-02T08:59:51.122Z,55.71
2022-08-02T09:02:20.643Z,54.88
2022-08-02T09:04:54.956Z,55.88
2022-08-02T09:07:23.948Z,56.34
2022-08-02T09:09:51.988Z,56.43
2022-08-02T09:12:22.442Z,55.56
2022-08-02T09:14:50.663Z,54.49
2022-08-02T09:17:21.389Z,53.68
2022-08-02T09:20:07.816Z,55.01
2022-08-02T09:22:35.883Z,55.34
2022-08-02T09:25:03.816Z,55.12
2022-08-02T09:27:37.293Z,54.35
2022-08-02T09:30:11.742Z,53.42
2022-08-02T09:32:46.605Z,53.89
2022-08-02T09:36:06.526Z,53.94
2022-08-02T09:38:20.478Z,53.88
2022-08-02T09:40:48.481Z,53.03
2022-08-02T09:43:20.784Z,52.97
2022-08-02T09:45:48.812Z,53.36
2022-08-02T09:48:16.927Z,52.93
2022-08-02T09:50:47.341Z,52.85
2022-08-02T09:53:15.566Z,52.44
2022-08-02T09:55:44.170Z,52.60
2022-08-02T09:58:19.381Z,53.38
2022-08-02T10:00:55.391Z,52.46
2022-08-02T10:03:31.923Z,52.03
2022-08-02T10:06:04.842Z,51.14
2022-08-02T10:08:34.306Z,50.68
2022-08-02T10:11:03.691Z,50.50
2022-08-02T10:13:33.792Z,50.53
2022-08-02T10:16:02.604Z,50.23
2022-08-02T10:18:39.993Z,49.52
2022-08-02T10:21:16.721Z,50.15
2022-08-02T10:23:45.997Z,50.59
2022-08-02T10:26:18.906Z,50.23
2022-08-02T10:28:48.054Z,48.83
2022-08-02T10:31:20.506Z,49.90
2022-08-02T10:33:50.407Z,48.29
2022-08-02T10:36:20.510Z,48.99
2022-08-02T10:38:48.428Z,48.22
2022-08-02T10:41:16.077Z,48.65
2022-08-02T10:43:46.197Z,48.61
2022-08-02T10:46:33.685Z,47.98
2022-08-02T10:49:36.194Z,47.96
2022-08-02T10:52:08.366Z,47.85
2022-08-02T10:54:39.552Z,47.87
2022-08-02T10:57:25.873Z,47.58
2022-08-02T10:59:56.590Z,47.09
2022-08-02T11:02:39.422Z,47.87
2022-08-02T11:05:12.026Z,48.62
2022-08-02T11:07:47.436Z,47.60
2022-08-02T11:10:35.178Z,46.05
2022-08-02T11:13:07.428Z,47.03
2022-08-02T11:15:55.251Z,45.71
2022-08-02T11:18:24.427Z,45.73
2022-08-02T11:21:22.255Z,45.81
2022-08-02T11:23:51.885Z,45.56
2022-08-02T11:26:45.319Z,45.11
2022-08-02T11:29:15.929Z,44.00
2022-08-02T11:31:45.165Z,45.53
2022-08-02T11:34:36.953Z,45.02
2022-08-02T11:37:01.259Z,45.86
2022-08-02T11:39:30.314Z,45.57
2022-08-02T11:41:59.502Z,44.36
2022-08-02T11:44:28.803Z,44.99
2022-08-02T11:46:58.391Z,44.48
2022-08-02T11:49:26.121Z,45.12
2022-08-02T11:52:00.395Z,44.42
2022-08-02T11:54:31.986Z,44.07
2022-08-02T11:57:19.787Z,43.20
2022-08-02T11:59:49.742Z,43.89
2022-08-02T12:02:18.710Z,44.37
2022-08-02T12:04:53.688Z,42.67
2022-08-02T12:07:34.988Z,42.55
2022-08-02T12:10:07.258Z,43.02
2022-08-02T12:12:35.015Z,43.31
2022-08-02T12:15:02.738Z,42.10
2022-08-02T12:17:48.072Z,43.86
2022-08-02T12:20:17.194Z,45.25
2022-08-02T12:22:45.258Z,45.31
2022-08-02T12:25:33.261Z,45.19
2022-08-02T12:28:17.591Z,44.88
2022-08-02T12:30:56.620Z,44.47
2022-08-02T12:33:25.370Z,44.43
2022-08-02T12:35:53.846Z,44.09
2022-08-02T12:38:21.608Z,43.23
2022-08-02T12:40:52.196Z,44.04
2022-08-02T12:43:22.042Z,44.41
2022-08-02T12:45:51.197Z,44.44
2022-08-02T12:48:37.002Z,43.92
2022-08-02T12:51:19.979Z,44.55
2022-08-02T12:53:47.639Z,44.08
2022-08-02T12:56:30.570Z,43.71
2022-08-02T12:58:59.069Z,43.37
2022-08-02T13:01:28.021Z,43.46
2022-08-02T13:04:10.420Z,42.79
2022-08-02T13:06:45.162Z,43.43
2022-08-02T13:09:15.393Z,42.61
2022-08-02T13:11:44.693Z,42.67
2022-08-02T13:14:14.175Z,43.79
2022-08-02T13:16:43.052Z,43.37
2022-08-02T13:19:10.791Z,43.13
2022-08-02T13:21:41.752Z,43.44
2022-08-02T13:24:38.472Z,43.83
2022-08-02T13:27:10.754Z,43.46
2022-08-02T13:29:38.925Z,43.29
2022-08-02T13:32:07.123Z,43.20
2022-08-02T13:34:34.740Z,43.19
2022-08-02T13:37:02.512Z,42.90
2022-08-02T13:39:30.149Z,43.06
2022-08-02T13:41:57.851Z,42.69
2022-08-02T13:44:26.854Z,41.29
2022-08-02T13:46:54.533Z,42.25
2022-08-02T13:49:51.566Z,40.97
2022-08-02T13:52:10.573Z,41.56
2022-08-02T13:54:38.827Z,41.40
2022-08-02T13:57:06.540Z,42.03
2022-08-02T13:59:56.905Z,42.01
2022-08-02T14:02:23.403Z,40.74
2022-08-02T14:04:51.053Z,41.36
2022-08-02T14:07:18.884Z,40.78
2022-08-02T14:09:46.766Z,41.08
2022-08-02T14:12:14.978Z,42.16
2022-08-02T14:14:44.454Z,42.14
2022-08-02T14:17:13.398Z,41.17
2022-08-02T14:19:41.068Z,42.16
2022-08-02T14:22:11.468Z,41.74
2022-08-02T14:24:41.502Z,41.17
2022-08-02T14:27:09.360Z,41.12
2022-08-02T14:29:37.155Z,40.84
2022-08-02T14:32:06.894Z,40.93
2022-08-02T14:34:34.489Z,40.60
2022-08-02T14:37:02.114Z,40.71
2022-08-02T14:39:43.105Z,41.26
2022-08-02T14:42:17.674Z,41.06
2022-08-02T14:44:45.571Z,41.25
2022-08-02T14:47:14.530Z,40.68
2022-08-02T14:49:44.217Z,41.02
2022-08-02T14:52:15.448Z,40.94
2022-08-02T14:54:44.066Z,40.76
2022-08-02T14:57:14.390Z,40.52
2022-08-02T14:59:42.823Z,41.06
2022-08-02T15:02:13.505Z,41.48
2022-08-02T15:04:43.791Z,41.22
2022-08-02T15:07:12.292Z,40.36
2022-08-02T15:09:40.312Z,41.18
2022-08-02T15:12:08.985Z,41.49
2022-08-02T15:14:36.619Z,40.84
2022-08-02T15:17:04.463Z,40.73
2022-08-02T15:19:56.248Z,41.18
2022-08-02T15:22:21.838Z,41.60
2022-08-02T15:24:49.968Z,40.92
2022-08-02T15:27:17.983Z,40.73
2022-08-02T15:29:46.893Z,40.17
2022-08-02T15:32:15.120Z,41.19
2022-08-02T15:34:43.098Z,41.05
2022-08-02T15:37:10.789Z,41.24
2022-08-02T15:39:40.238Z,41.92
2022-08-02T15:42:08.054Z,41.08
2022-08-02T15:44:35.719Z,41.40
2022-08-02T15:47:03.563Z,41.37
2022-08-02T15:49:31.458Z,41.70
2022-08-02T15:51:59.117Z,40.82
2022-08-02T15:54:26.815Z,41.28
2022-08-02T15:56:55.886Z,41.56
2022-08-02T15:59:23.508Z,41.05
2022-08-02T16:01:51.343Z,40.30
2022-08-02T16:04:19.047Z,41.05
2022-08-02T16:06:46.765Z,41.17
2022-08-02T16:09:14.525Z,41.64
2022-08-02T16:11:42.141Z,41.99
2022-08-02T16:14:11.302Z,42.20
2022-08-02T16:16:40.188Z,41.40
2022-08-02T16:19:47.040Z,41.80
2022-08-02T16:21:56.247Z,41.55
2022-08-02T16:24:24.022Z,41.80
2022-08-02T16:26:51.635Z,41.40
2022-08-02T16:29:20.655Z,41.51
2022-08-02T16:31:48.359Z,41.24
2022-08-02T16:34:16.484Z,41.48
2022-08-02T16:36:44.413Z,41.46
2022-08-02T16:39:12.407Z,41.32
2022-08-02T16:41:50.799Z,41.05
2022-08-02T16:47:13.522Z,41.93
2022-08-02T16:50:05.181Z,42.04
2022-08-02T16:52:30.321Z,42.13
2022-08-02T16:54:57.920Z,41.72
2022-08-02T16:57:42.451Z,42.19
2022-08-02T17:00:14.000Z,42.05
2022-08-02T17:02:43.307Z,42.23
2022-08-02T17:05:14.365Z,42.59
2022-08-02T17:08:15.086Z,42.24
2022-08-02T17:10:30.846Z,42.32
2022-08-02T17:12:58.635Z,42.75
2022-08-02T17:16:01.291Z,43.00
2022-08-02T17:18:29.185Z,42.70
2022-08-02T17:20:57.840Z,43.28
2022-08-02T17:24:06.036Z,43.47
2022-08-02T17:26:13.659Z,43.98
2022-08-02T17:28:50.811Z,43.70
2022-08-02T17:31:37.363Z,43.40
2022-08-02T17:34:11.712Z,43.34
2022-08-02T17:36:39.411Z,44.82
2022-08-02T17:39:07.231Z,44.69
2022-08-02T17:41:37.871Z,44.92
2022-08-02T17:44:08.711Z,44.89
2022-08-02T17:46:37.906Z,45.15
2022-08-02T17:49:19.597Z,45.46
2022-08-02T17:52:15.440Z,45.74
2022-08-02T17:54:35.712Z,45.77
2022-08-02T17:57:04.294Z,45.73
2022-08-02T17:59:41.614Z,46.28
2022-08-02T18:02:11.173Z,46.18
2022-08-02T18:04:39.404Z,46.45
2022-08-02T18:07:09.686Z,46.41
2022-08-02T18:12:26.017Z,46.73
2022-08-02T18:14:55.446Z,47.04
2022-08-02T18:17:24.555Z,47.06
2022-08-02T18:20:05.975Z,47.29
2022-08-02T18:22:38.026Z,47.17
2022-08-02T18:25:09.401Z,47.34
2022-08-02T18:27:38.967Z,47.18
2022-08-02T18:30:08.878Z,47.19
2022-08-02T18:33:57.640Z,47.24
2022-08-02T18:35:29.603Z,47.49
2022-08-02T18:38:03.454Z,47.47
2022-08-02T18:40:32.231Z,47.67
2022-08-02T18:42:59.926Z,47.70
2022-08-02T18:46:04.628Z,48.28
2022-08-02T18:48:20.314Z,48.39
2022-08-02T18:50:49.699Z,48.38
2022-08-02T18:56:05.358Z,48.97
2022-08-02T18:58:33.468Z,49.04
2022-08-02T19:01:14.825Z,49.29
2022-08-02T19:03:50.478Z,49.62
2022-08-02T19:06:19.773Z,49.61
2022-08-02T19:09:05.802Z,50.00
2022-08-02T19:11:35.926Z,50.22
2022-08-02T19:14:03.582Z,50.74
2022-08-02T19:16:36.914Z,51.10
2022-08-02T19:19:07.083Z,50.98
2022-08-02T19:22:17.673Z,50.49
2022-08-02T19:24:22.507Z,50.61
2022-08-02T19:26:52.568Z,50.81
2022-08-02T19:29:42.312Z,50.43
2022-08-02T19:32:40.174Z,50.76
2022-08-02T19:35:00.231Z,50.77
2022-08-02T19:37:36.970Z,50.55
2022-08-02T19:40:07.918Z,50.48
2022-08-02T19:44:21.371Z,50.91
2022-08-02T19:45:49.021Z,51.07
2022-08-02T19:48:14.773Z,51.13
2022-08-02T19:50:49.236Z,51.03
2022-08-02T19:53:17.997Z,51.21
2022-08-02T19:56:00.910Z,51.16
2022-08-02T19:58:32.394Z,51.26
2022-08-02T20:01:00.262Z,51.42
2022-08-02T20:03:51.066Z,51.82
2022-08-02T20:06:18.274Z,52.21
2022-08-02T20:08:53.395Z,52.55
2022-08-02T20:11:26.853Z,52.03
2022-08-02T20:13:54.781Z,52.53
2022-08-02T20:16:27.640Z,52.33
2022-08-02T20:18:56.304Z,52.45
2022-08-02T20:21:35.666Z,52.87
2022-08-02T20:24:04.766Z,52.57
2022-08-02T20:26:32.333Z,52.66
2022-08-02T20:29:02.657Z,52.80
2022-08-02T20:31:30.681Z,52.64
2022-08-02T20:33:58.882Z,52.84
2022-08-02T20:36:28.293Z,53.17
2022-08-02T20:38:56.332Z,53.52
2022-08-02T20:41:36.563Z,53.62
2022-08-02T20:44:05.348Z,53.54
2022-08-02T20:46:44.234Z,53.93
2022-08-02T20:49:23.125Z,54.08
2022-08-02T20:51:54.607Z,54.40
2022-08-02T20:54:25.970Z,54.53
2022-08-02T20:56:53.713Z,54.41
2022-08-02T20:59:21.533Z,54.09
2022-08-02T21:01:57.402Z,54.03
2022-08-02T21:04:26.282Z,54.18
2022-08-02T21:06:55.927Z,53.94
2022-08-02T21:09:40.716Z,53.87
2022-08-02T21:12:12.620Z,54.23
2022-08-02T21:14:40.594Z,54.07
2022-08-02T21:17:08.686Z,54.45
2022-08-02T21:19:37.054Z,54.61
2022-08-02T21:22:13.866Z,54.51
2022-08-02T21:24:43.068Z,54.77
2022-08-02T21:27:52.990Z,54.55
2022-08-02T21:30:02.605Z,54.76
2022-08-02T21:32:30.988Z,54.78
2022-08-02T21:34:58.957Z,54.75
2022-08-02T21:37:33.220Z,54.43
2022-08-02T21:40:13.506Z,54.41
2022-08-02T21:42:41.245Z,54.24
2022-08-02T21:45:17.186Z,54.34
2022-08-02T21:47:47.701Z,54.00
2022-08-02T21:50:16.428Z,53.93
2022-08-02T21:52:52.408Z,54.20
2022-08-02T21:55:21.338Z,54.67
2022-08-02T21:57:52.337Z,54.30
2022-08-02T22:00:28.340Z,54.55
2022-08-02T22:02:56.691Z,54.41
2022-08-02T22:05:24.679Z,54.44
2022-08-02T22:07:53.846Z,55.85
2022-08-02T22:10:22.445Z,55.63
2022-08-02T22:12:50.253Z,55.88
2022-08-02T22:15:25.758Z,56.35
2022-08-02T22:18:03.660Z,56.51
2022-08-02T22:20:31.468Z,56.76
2022-08-02T22:23:01.216Z,57.09
2022-08-02T22:25:36.458Z,56.92
2022-08-02T22:28:36.733Z,56.46
2022-08-02T22:30:54.152Z,56.58
2022-08-02T22:33:42.348Z,56.71
2022-08-02T22:36:15.426Z,56.53
2022-08-02T22:38:44.947Z,57.14
2022-08-02T22:41:13.082Z,57.32
2022-08-02T22:43:41.085Z,57.44
2022-08-02T22:47:13.719Z,57.39
2022-08-02T22:49:45.544Z,57.47
2022-08-02T22:52:21.764Z,57.39
2022-08-02T22:54:51.327Z,58.02
2022-08-02T22:57:29.955Z,58.21
2022-08-02T22:58:48.693Z,41.75
2022-08-02T22:58:58.666Z,48.72
2022-08-02T22:58:59.319Z,46.66
2022-08-02T22:59:59.329Z,58.68
2022-08-02T23:02:27.401Z,59.46
2022-08-02T23:04:55.794Z,59.76
2022-08-02T23:07:23.475Z,60.59
2022-08-02T23:09:52.861Z,60.31
2022-08-02T23:12:21.099Z,59.26
2022-08-02T23:14:50.376Z,59.55
2022-08-02T23:17:35.710Z,59.09
2022-08-02T23:20:03.892Z,58.80
2022-08-02T23:22:34.387Z,59.15
2022-08-02T23:25:04.395Z,59.38
2022-08-02T23:27:33.214Z,58.94
2022-08-02T23:30:01.437Z,59.17
2022-08-02T23:32:29.575Z,59.41
2022-08-02T23:34:57.999Z,58.83
2022-08-02T23:37:26.005Z,59.74
2022-08-02T23:39:53.930Z,59.48
2022-08-02T23:42:25.139Z,58.68
2022-08-02T23:44:53.090Z,58.51
2022-08-02T23:47:21.613Z,59.25
2022-08-02T23:49:49.559Z,59.62
2022-08-02T23:52:17.658Z,60.01
2022-08-02T23:54:45.686Z,60.28
2022-08-02T23:57:20.829Z,60.76
2022-08-02T23:59:51.593Z,61.32
